Time;durP1;ratioP1;P1;durP2;ratioP2;P2;SDS_P1;SDS_P2;PMS_P1;PMS_P2;Temp;Humidity;BMP_temperature;BMP_pressure;BME280_temperature;BME280_humidity;BME280_pressure;Samples;Min_cycle;Max_cycle;Signal;HPM_P1;HPM_P2
2023/12/02 00:00:31;;;;;;;29.88;16.27;;;-0.60;99.90;;;;;;5091112;27;20080;-66
2023/12/02 00:02:57;;;;;;;29.58;16.48;;;-0.60;99.90;;;;;;5115149;27;20047;-66
2023/12/02 00:05:23;;;;;;;34.40;17.08;;;-0.60;99.90;;;;;;5133068;27;20043;-66
2023/12/02 00:07:48;;;;;;;27.33;16.58;;;-0.60;99.90;;;;;;5113773;27;20064;-66
2023/12/02 00:10:14;;;;;;;30.95;17.35;;;-0.50;99.90;;;;;;5114546;27;20035;-65
2023/12/02 00:12:40;;;;;;;26.25;14.95;;;-0.50;99.90;;;;;;5115099;27;20043;-66
2023/12/02 00:15:07;;;;;;;27.15;15.18;;;-0.40;99.90;;;;;;5114285;27;20468;-66
2023/12/02 00:17:33;;;;;;;25.25;15.02;;;-0.40;99.90;;;;;;5132607;27;20392;-66
2023/12/02 00:19:58;;;;;;;26.58;16.27;;;-0.40;99.90;;;;;;5123309;27;20049;-66
2023/12/02 00:22:24;;;;;;;31.77;15.73;;;-0.50;99.90;;;;;;5097234;28;20442;-66
2023/12/02 00:24:50;;;;;;;26.85;15.20;;;-0.40;99.90;;;;;;5133117;28;20423;-66
2023/12/02 00:27:17;;;;;;;27.88;15.88;;;-0.40;99.90;;;;;;5114256;28;20041;-66
2023/12/02 00:29:43;;;;;;;25.35;14.77;;;-0.40;99.90;;;;;;5097841;28;20066;-65
2023/12/02 00:32:09;;;;;;;25.10;13.93;;;-0.40;99.90;;;;;;5114592;28;20041;-65
2023/12/02 00:34:34;;;;;;;25.27;13.65;;;-0.40;99.90;;;;;;5113596;28;20039;-66
2023/12/02 00:37:00;;;;;;;25.90;15.27;;;-0.40;99.90;;;;;;5115106;28;20036;-65
2023/12/02 00:39:27;;;;;;;25.67;14.23;;;-0.40;99.90;;;;;;5114481;28;20100;-65
2023/12/02 00:41:53;;;;;;;26.50;15.98;;;-0.40;99.90;;;;;;5115072;28;20084;-65
2023/12/02 00:44:19;;;;;;;31.77;16.73;;;-0.30;99.90;;;;;;5131595;28;20031;-65
2023/12/02 00:46:45;;;;;;;30.05;15.00;;;-0.40;99.90;;;;;;5114327;28;20100;-65
2023/12/02 00:49:11;;;;;;;26.48;14.05;;;-0.30;99.90;;;;;;5130551;28;20035;-66
2023/12/02 00:51:37;;;;;;;30.55;16.58;;;-0.40;99.90;;;;;;5131414;28;20039;-65
2023/12/02 00:54:03;;;;;;;29.23;15.55;;;-0.30;99.90;;;;;;5114613;28;20039;-65
2023/12/02 00:56:28;;;;;;;26.30;15.05;;;-0.30;99.90;;;;;;5130294;28;20055;-65
2023/12/02 00:58:54;;;;;;;23.33;14.35;;;-0.30;99.90;;;;;;5097344;28;20108;-66
2023/12/02 01:01:20;;;;;;;24.00;13.13;;;-0.30;99.90;;;;;;5115172;27;20084;-65
2023/12/02 01:03:45;;;;;;;25.02;13.07;;;-0.30;99.90;;;;;;5117248;27;20143;-65
2023/12/02 01:06:11;;;;;;;24.73;14.07;;;-0.30;99.90;;;;;;5118161;27;20476;-65
2023/12/02 01:08:37;;;;;;;24.45;14.05;;;-0.30;99.90;;;;;;5118062;27;20452;-65
2023/12/02 01:11:03;;;;;;;26.55;15.40;;;-0.30;99.90;;;;;;5117607;27;20035;-65
2023/12/02 01:13:28;;;;;;;26.05;14.30;;;-0.40;99.90;;;;;;5118323;27;20482;-66
2023/12/02 01:15:54;;;;;;;25.65;14.55;;;-0.40;99.90;;;;;;5118056;27;20463;-65
2023/12/02 01:18:20;;;;;;;30.98;16.27;;;-0.40;99.90;;;;;;5117542;27;20455;-65
2023/12/02 01:20:45;;;;;;;29.90;15.77;;;-0.40;99.90;;;;;;5118044;27;20452;-65
2023/12/02 01:23:11;;;;;;;25.70;13.98;;;-0.40;99.90;;;;;;5117892;27;20039;-66
2023/12/02 01:25:37;;;;;;;27.58;15.48;;;-0.50;99.90;;;;;;5116951;27;20031;-65
2023/12/02 01:28:03;;;;;;;22.25;13.32;;;-0.50;99.90;;;;;;5136728;27;20080;-65
2023/12/02 01:30:29;;;;;;;24.48;14.93;;;-0.50;99.90;;;;;;5117191;27;20043;-65
2023/12/02 01:32:55;;;;;;;24.60;13.80;;;-0.50;99.90;;;;;;5118056;27;20475;-66
2023/12/02 01:35:20;;;;;;;23.90;13.82;;;-0.50;99.90;;;;;;5117544;27;20038;-65
2023/12/02 01:37:46;;;;;;;27.55;12.98;;;-0.50;99.90;;;;;;5116590;27;20128;-65
2023/12/02 01:40:12;;;;;;;25.58;14.60;;;-0.40;99.90;;;;;;5117608;27;20043;-65
2023/12/02 01:42:39;;;;;;;25.90;14.27;;;-0.50;99.90;;;;;;5117899;27;20431;-65
2023/12/02 01:45:05;;;;;;;24.17;14.82;;;-0.50;99.90;;;;;;5117071;27;20552;-65
2023/12/02 01:47:31;;;;;;;23.67;13.93;;;-0.50;99.90;;;;;;5117039;27;20043;-65
2023/12/02 01:49:59;;;;;;;24.55;14.25;;;-0.50;99.90;;;;;;5117453;27;20118;-65
2023/12/02 01:52:25;;;;;;;28.73;15.30;;;-0.50;99.90;;;;;;5116711;27;20099;-65
2023/12/02 01:54:51;;;;;;;25.80;13.18;;;-0.50;99.90;;;;;;5135721;27;20031;-65
2023/12/02 01:57:17;;;;;;;28.77;14.40;;;-0.50;99.90;;;;;;5116994;27;20047;-65
2023/12/02 01:59:53;;;;;;;26.38;14.82;;;-0.50;99.90;;;;;;5116821;27;20035;-65
2023/12/02 02:02:19;;;;;;;23.73;13.45;;;-0.50;99.90;;;;;;5100065;27;20043;-65
2023/12/02 02:04:50;;;;;;;26.55;15.88;;;-0.40;99.90;;;;;;5116946;27;20035;-65
2023/12/02 02:07:17;;;;;;;26.10;15.13;;;-0.50;99.90;;;;;;5116623;27;20081;-65
2023/12/02 02:09:46;;;;;;;28.02;13.27;;;-0.40;99.90;;;;;;5117268;27;20118;-65
2023/12/02 02:12:13;;;;;;;22.98;12.30;;;-0.50;99.90;;;;;;5117101;27;20076;-65
2023/12/02 02:14:38;;;;;;;23.15;14.13;;;-0.40;99.90;;;;;;5115171;27;20078;-65
2023/12/02 02:17:04;;;;;;;23.10;13.48;;;-0.50;99.90;;;;;;5117474;27;20067;-65
2023/12/02 02:19:31;;;;;;;26.27;14.40;;;-0.60;99.90;;;;;;5100280;27;20096;-65
2023/12/02 02:21:56;;;;;;;27.08;14.27;;;-0.50;99.90;;;;;;5116732;27;20103;-65
2023/12/02 02:24:22;;;;;;;23.23;14.13;;;-0.50;99.90;;;;;;5116973;27;20512;-65
2023/12/02 02:26:57;;;;;;;26.77;15.10;;;-0.50;99.90;;;;;;5116076;27;20050;-65
2023/12/02 02:29:23;;;;;;;24.25;13.57;;;-0.50;99.90;;;;;;5117141;27;20043;-65
2023/12/02 02:31:48;;;;;;;28.85;14.75;;;-0.50;99.90;;;;;;5116264;27;20483;-65
2023/12/02 02:34:14;;;;;;;28.65;14.02;;;-0.40;99.90;;;;;;5115986;27;20042;-65
2023/12/02 02:36:40;;;;;;;28.58;15.18;;;-0.50;99.90;;;;;;5099570;27;20126;-65
2023/12/02 02:39:07;;;;;;;22.63;12.60;;;-0.50;99.90;;;;;;5116802;27;20043;-65
2023/12/02 02:41:33;;;;;;;27.02;13.73;;;-0.40;99.90;;;;;;5125371;27;20392;-65
2023/12/02 02:43:58;;;;;;;21.75;12.20;;;-0.40;99.90;;;;;;5116600;27;20043;-66
2023/12/02 02:46:24;;;;;;;25.83;14.38;;;-0.40;99.90;;;;;;5133413;27;20051;-65
2023/12/02 02:48:50;;;;;;;24.13;14.10;;;-0.40;99.90;;;;;;5131754;27;20400;-65
2023/12/02 02:51:15;;;;;;;26.27;14.65;;;-0.40;99.90;;;;;;5099519;27;20384;-65
2023/12/02 02:53:41;;;;;;;21.50;12.90;;;-0.40;99.90;;;;;;5116149;27;20035;-65
2023/12/02 02:56:07;;;;;;;24.02;14.55;;;-0.40;99.90;;;;;;5111980;28;20071;-65
2023/12/02 02:58:36;;;;;;;22.25;12.65;;;-0.30;99.90;;;;;;5112582;28;20044;-65
2023/12/02 03:01:02;;;;;;;23.13;13.43;;;-0.40;99.90;;;;;;5114174;28;20403;-65
2023/12/02 03:03:28;;;;;;;23.02;13.52;;;-0.30;99.90;;;;;;5112085;28;20396;-65
2023/12/02 03:05:55;;;;;;;28.10;13.40;;;-0.40;99.90;;;;;;5112513;28;20035;-65
2023/12/02 03:08:20;;;;;;;26.30;13.40;;;-0.40;99.90;;;;;;5113727;28;20043;-65
2023/12/02 03:10:49;;;;;;;23.73;12.68;;;-0.40;99.90;;;;;;5112700;28;20034;-65
2023/12/02 03:13:15;;;;;;;26.63;13.38;;;-0.30;99.90;;;;;;5112651;28;20040;-65
2023/12/02 03:15:41;;;;;;;26.70;14.23;;;-0.30;99.90;;;;;;5112437;28;20540;-65
2023/12/02 03:18:07;;;;;;;22.90;12.27;;;-0.30;99.90;;;;;;5111980;28;20051;-65
2023/12/02 03:20:32;;;;;;;23.67;13.90;;;-0.30;99.90;;;;;;5111689;28;20077;-65
2023/12/02 03:22:58;;;;;;;25.20;15.95;;;-0.30;99.90;;;;;;5111903;28;20047;-65
2023/12/02 03:25:24;;;;;;;23.65;13.18;;;-0.30;99.90;;;;;;5112030;28;20054;-65
2023/12/02 03:27:49;;;;;;;23.17;13.63;;;-0.40;99.90;;;;;;5111975;28;20039;-65
2023/12/02 03:30:15;;;;;;;27.52;14.25;;;-0.40;99.90;;;;;;5112200;28;20036;-65
2023/12/02 03:32:41;;;;;;;28.15;14.40;;;-0.40;99.90;;;;;;5111951;28;20043;-65
2023/12/02 03:35:08;;;;;;;25.98;13.88;;;-0.40;99.90;;;;;;5112768;28;20082;-65
2023/12/02 03:37:34;;;;;;;23.95;13.25;;;-0.40;99.90;;;;;;5111584;28;20059;-65
2023/12/02 03:40:00;;;;;;;25.85;14.20;;;-0.40;99.90;;;;;;5112548;28;20043;-65
2023/12/02 03:42:29;;;;;;;24.17;13.48;;;-0.30;99.90;;;;;;5111797;28;20043;-65
2023/12/02 03:44:55;;;;;;;20.60;12.85;;;-0.40;99.90;;;;;;5111236;28;20511;-65
2023/12/02 03:47:20;;;;;;;24.52;13.82;;;-0.40;99.90;;;;;;5111793;28;20036;-65
2023/12/02 03:49:46;;;;;;;23.45;13.60;;;-0.40;99.90;;;;;;5111776;28;20036;-65
2023/12/02 03:52:12;;;;;;;23.25;13.15;;;-0.50;99.90;;;;;;5110951;28;20046;-65
2023/12/02 03:54:37;;;;;;;23.35;12.77;;;-0.50;99.90;;;;;;5094886;28;20123;-65
2023/12/02 03:57:03;;;;;;;25.42;13.80;;;-0.40;99.90;;;;;;5111631;28;20070;-65
2023/12/02 03:59:29;;;;;;;24.40;13.82;;;-0.40;99.90;;;;;;5110747;28;20043;-65
2023/12/02 04:01:56;;;;;;;22.35;13.40;;;-0.50;99.90;;;;;;5111683;28;20507;-65
2023/12/02 04:04:22;;;;;;;23.23;13.65;;;-0.50;99.90;;;;;;5111678;28;20122;-65
2023/12/02 04:06:48;;;;;;;21.95;13.23;;;-0.50;99.90;;;;;;5110740;28;20502;-65
2023/12/02 04:09:16;;;;;;;23.90;12.25;;;-0.50;99.90;;;;;;5094561;28;20039;-65
2023/12/02 04:11:48;;;;;;;25.52;14.27;;;-0.50;99.90;;;;;;5111664;28;20468;-65
2023/12/02 04:14:13;;;;;;;23.27;12.98;;;-0.50;99.90;;;;;;5110715;28;20038;-65
2023/12/02 04:16:43;;;;;;;22.90;13.55;;;-0.40;99.90;;;;;;5111333;28;20126;-65
2023/12/02 04:19:09;;;;;;;23.05;13.07;;;-0.40;99.90;;;;;;5110873;28;20043;-65
2023/12/02 04:21:42;;;;;;;22.70;12.60;;;-0.40;99.90;;;;;;5111108;28;20054;-65
2023/12/02 04:24:09;;;;;;;24.75;12.35;;;-0.40;99.90;;;;;;5111369;28;20126;-65
2023/12/02 04:26:36;;;;;;;29.05;14.30;;;-0.50;99.90;;;;;;5093365;28;20389;-65
2023/12/02 04:29:02;;;;;;;22.92;13.73;;;-0.50;99.90;;;;;;5111571;28;20040;-65
2023/12/02 04:31:27;;;;;;;24.42;14.27;;;-0.40;99.90;;;;;;5111017;28;20043;-65
2023/12/02 04:33:53;;;;;;;24.73;13.55;;;-0.50;99.90;;;;;;5109927;28;20110;-65
2023/12/02 04:36:19;;;;;;;20.85;13.18;;;-0.50;99.90;;;;;;5110834;28;20052;-65
2023/12/02 04:38:45;;;;;;;27.15;15.00;;;-0.50;99.90;;;;;;5097905;28;20043;-65
2023/12/02 04:41:11;;;;;;;27.05;14.05;;;-0.50;99.90;;;;;;5115052;28;20046;-65
2023/12/02 04:43:36;;;;;;;28.02;13.75;;;-0.50;99.90;;;;;;5115246;28;20043;-65
2023/12/02 04:46:02;;;;;;;26.05;14.48;;;-0.50;99.90;;;;;;5115507;28;20040;-65
2023/12/02 04:48:28;;;;;;;22.33;12.73;;;-0.50;99.90;;;;;;5097326;28;20039;-65
2023/12/02 04:50:53;;;;;;;25.67;14.35;;;-0.60;99.90;;;;;;5115289;28;20040;-65
2023/12/02 04:53:20;;;;;;;24.98;12.90;;;-0.50;99.90;;;;;;5115390;28;20118;-65
2023/12/02 04:55:46;;;;;;;27.67;14.20;;;-0.50;99.90;;;;;;5097325;28;20077;-65
2023/12/02 04:58:11;;;;;;;25.67;13.98;;;-0.50;99.90;;;;;;5115147;28;20043;-65
2023/12/02 05:00:37;;;;;;;23.70;12.52;;;-0.50;99.90;;;;;;5114955;28;20112;-65
2023/12/02 05:03:03;;;;;;;22.67;14.13;;;-0.60;99.90;;;;;;5114211;28;20075;-65
2023/12/02 05:05:29;;;;;;;24.88;14.10;;;-0.50;99.90;;;;;;5115241;28;20078;-65
2023/12/02 05:07:54;;;;;;;25.42;13.02;;;-0.50;99.90;;;;;;5115258;28;20046;-65
2023/12/02 05:10:20;;;;;;;24.92;13.68;;;-0.50;99.90;;;;;;5114473;28;20035;-65
2023/12/02 05:12:46;;;;;;;23.77;14.30;;;-0.50;99.90;;;;;;5114869;28;20483;-65
2023/12/02 05:15:11;;;;;;;22.33;12.98;;;-0.60;99.90;;;;;;5116074;28;20442;-65
2023/12/02 05:17:37;;;;;;;26.25;14.18;;;-0.60;99.90;;;;;;5113954;28;20496;-65
2023/12/02 05:20:05;;;;;;;24.85;14.43;;;-0.60;99.90;;;;;;5115419;28;20097;-65
2023/12/02 05:22:31;;;;;;;26.15;13.38;;;-0.50;99.90;;;;;;5096681;28;20039;-65
2023/12/02 05:24:56;;;;;;;25.25;14.40;;;-0.60;99.90;;;;;;5114682;28;20039;-65
2023/12/02 05:27:22;;;;;;;25.63;13.07;;;-0.50;99.90;;;;;;5114521;28;20039;-65
2023/12/02 05:29:48;;;;;;;26.38;15.82;;;-0.50;99.90;;;;;;5096542;28;20028;-65
2023/12/02 05:32:13;;;;;;;29.40;17.33;;;-0.50;99.90;;;;;;5115069;28;20119;-65
2023/12/02 05:34:39;;;;;;;25.25;15.10;;;-0.50;99.90;;;;;;5114323;28;20039;-65
2023/12/02 05:37:05;;;;;;;26.15;13.43;;;-0.50;99.90;;;;;;5113810;28;20093;-65
2023/12/02 05:39:31;;;;;;;30.98;16.17;;;-0.40;99.90;;;;;;5113705;28;20039;-65
2023/12/02 05:41:56;;;;;;;28.80;16.48;;;-0.50;99.90;;;;;;5114397;28;20119;-65
2023/12/02 05:44:23;;;;;;;27.02;15.48;;;-0.40;99.90;;;;;;5113571;28;20043;-65
2023/12/02 05:46:51;;;;;;;25.17;13.85;;;-0.40;99.90;;;;;;5115856;28;20046;-65
2023/12/02 05:49:16;;;;;;;25.55;14.40;;;-0.40;99.90;;;;;;5097439;28;20105;-65
2023/12/02 05:51:42;;;;;;;26.92;14.35;;;-0.40;99.90;;;;;;5113341;28;20078;-65
2023/12/02 05:54:08;;;;;;;23.55;12.57;;;-0.30;99.90;;;;;;5114209;28;20112;-65
2023/12/02 05:56:34;;;;;;;24.90;13.27;;;-0.40;99.90;;;;;;5113746;28;20489;-65
2023/12/02 05:59:01;;;;;;;26.77;13.93;;;-0.30;99.90;;;;;;5113340;28;20052;-65
2023/12/02 06:01:27;;;;;;;22.08;12.20;;;-0.30;99.90;;;;;;5096935;28;20144;-65
2023/12/02 06:03:53;;;;;;;26.77;14.65;;;-0.30;99.90;;;;;;5114176;28;20039;-65
2023/12/02 06:06:19;;;;;;;22.88;11.88;;;-0.30;99.90;;;;;;5113011;28;20480;-65
2023/12/02 06:08:45;;;;;;;26.25;15.45;;;-0.30;99.90;;;;;;5113605;28;20519;-65
2023/12/02 06:11:11;;;;;;;23.85;12.70;;;-0.30;99.90;;;;;;5113580;28;20484;-65
2023/12/02 06:13:37;;;;;;;23.15;13.75;;;-0.20;99.90;;;;;;5112801;28;20046;-65
2023/12/02 06:16:02;;;;;;;21.75;13.18;;;-0.30;99.90;;;;;;5113840;28;20035;-65
2023/12/02 06:18:28;;;;;;;26.02;12.90;;;-0.30;99.90;;;;;;5113676;28;20092;-65
2023/12/02 06:20:54;;;;;;;23.23;13.40;;;-0.20;99.90;;;;;;5114079;28;20031;-65
2023/12/02 06:23:19;;;;;;;23.48;13.05;;;-0.20;99.90;;;;;;5113451;28;20067;-65
2023/12/02 06:25:45;;;;;;;25.40;13.10;;;-0.20;99.90;;;;;;5112398;28;20462;-65
2023/12/02 06:28:11;;;;;;;24.58;12.63;;;-0.30;99.90;;;;;;5113366;28;20042;-65
2023/12/02 06:30:36;;;;;;;25.13;13.48;;;-0.30;99.90;;;;;;5113970;28;20031;-65
2023/12/02 06:33:02;;;;;;;21.95;13.63;;;-0.20;99.90;;;;;;5112496;28;20078;-65
2023/12/02 06:35:28;;;;;;;24.73;12.73;;;-0.20;99.90;;;;;;5113332;28;20062;-65
2023/12/02 06:37:53;;;;;;;21.58;11.82;;;-0.20;99.90;;;;;;5096104;28;20511;-65
2023/12/02 06:40:19;;;;;;;22.70;14.23;;;-0.20;99.90;;;;;;5112421;28;20050;-65
2023/12/02 06:42:44;;;;;;;25.38;12.23;;;-0.20;99.90;;;;;;5113685;28;20043;-65
2023/12/02 06:45:10;;;;;;;24.15;12.63;;;-0.20;99.90;;;;;;5114079;28;20540;-65
2023/12/02 06:47:36;;;;;;;23.52;12.85;;;-0.20;99.90;;;;;;5111373;28;20503;-65
2023/12/02 06:50:03;;;;;;;25.60;13.80;;;-0.20;99.90;;;;;;5113513;28;20043;-65
2023/12/02 06:52:29;;;;;;;24.65;13.43;;;-0.20;99.90;;;;;;5112751;28;20472;-65
2023/12/02 06:54:55;;;;;;;25.85;13.50;;;-0.20;99.90;;;;;;5112173;28;20097;-64
2023/12/02 06:57:20;;;;;;;20.60;12.88;;;-0.30;99.90;;;;;;5112741;28;20043;-65
2023/12/02 06:59:46;;;;;;;24.23;12.90;;;-0.20;99.90;;;;;;5112576;28;20464;-65
2023/12/02 07:02:12;;;;;;;23.67;12.50;;;-0.20;99.90;;;;;;5111879;28;20388;-65
2023/12/02 07:04:38;;;;;;;24.58;13.13;;;-0.20;99.90;;;;;;5112524;28;20096;-64
2023/12/02 07:07:04;;;;;;;24.85;15.25;;;-0.30;99.90;;;;;;5112733;28;20047;-64
2023/12/02 07:09:29;;;;;;;25.90;14.50;;;-0.20;99.90;;;;;;5094549;28;20043;-64
2023/12/02 07:11:55;;;;;;;28.55;15.85;;;-0.10;99.90;;;;;;5113142;28;20039;-64
2023/12/02 07:14:21;;;;;;;30.27;19.55;;;-0.10;99.90;;;;;;5113166;28;20040;-66
2023/12/02 07:16:46;;;;;;;33.63;19.15;;;-0.10;99.90;;;;;;5111632;28;20054;-65
2023/12/02 07:19:12;;;;;;;29.70;16.70;;;-0.10;99.90;;;;;;5095420;28;20040;-64
2023/12/02 07:21:38;;;;;;;29.95;17.45;;;-0.10;99.90;;;;;;5094908;28;20376;-64
2023/12/02 07:24:04;;;;;;;28.92;16.60;;;-0.10;99.90;;;;;;5094196;28;20047;-64
2023/12/02 07:26:30;;;;;;;25.80;14.73;;;-0.10;99.90;;;;;;5111756;28;20044;-65
2023/12/02 07:28:55;;;;;;;25.52;14.02;;;-0.10;99.90;;;;;;5112064;28;20053;-64
2023/12/02 07:31:21;;;;;;;26.55;15.80;;;-0.10;99.90;;;;;;5094633;28;20035;-65
2023/12/02 07:33:46;;;;;;;28.08;15.00;;;-0.10;99.90;;;;;;5111888;28;20096;-64
2023/12/02 07:36:12;;;;;;;32.70;16.30;;;0.00;99.90;;;;;;5111358;28;20039;-65
2023/12/02 07:38:40;;;;;;;28.20;15.13;;;0.00;99.90;;;;;;5107276;28;20035;-65
2023/12/02 07:41:08;;;;;;;25.85;14.70;;;0.00;99.90;;;;;;5109760;28;20039;-65
2023/12/02 07:43:34;;;;;;;28.75;15.25;;;0.00;99.90;;;;;;5109346;28;20131;-64
2023/12/02 07:46:00;;;;;;;27.27;16.55;;;0.00;99.90;;;;;;5109750;28;20237;-65
2023/12/02 07:48:25;;;;;;;28.60;16.02;;;0.10;99.90;;;;;;5109116;28;20172;-65
2023/12/02 07:50:51;;;;;;;26.30;15.18;;;0.10;99.90;;;;;;5091316;28;20039;-65
2023/12/02 07:53:17;;;;;;;29.23;16.63;;;0.10;99.90;;;;;;5109629;28;20085;-65
2023/12/02 07:55:43;;;;;;;29.00;16.13;;;0.10;99.90;;;;;;5111932;27;20544;-65
2023/12/02 07:58:08;;;;;;;27.70;15.38;;;0.10;99.90;;;;;;5094835;27;20389;-65
2023/12/02 08:00:34;;;;;;;26.65;14.27;;;0.10;99.90;;;;;;5112867;27;20051;-65
2023/12/02 08:03:00;;;;;;;25.08;14.45;;;0.10;99.90;;;;;;5112807;27;20042;-65
2023/12/02 08:05:26;;;;;;;23.80;13.98;;;0.10;99.90;;;;;;5111789;27;20567;-65
2023/12/02 08:07:51;;;;;;;26.77;14.07;;;0.20;99.90;;;;;;5112526;28;20043;-65
2023/12/02 08:10:18;;;;;;;24.42;13.70;;;0.10;99.90;;;;;;5112056;27;20039;-65
2023/12/02 08:12:44;;;;;;;29.85;16.70;;;0.10;99.90;;;;;;5110687;27;20043;-65
2023/12/02 08:15:10;;;;;;;22.20;14.30;;;0.20;99.90;;;;;;5095120;27;20126;-65
2023/12/02 08:17:36;;;;;;;23.27;13.32;;;0.30;99.90;;;;;;5111975;28;20499;-65
2023/12/02 08:20:03;;;;;;;22.92;13.15;;;0.30;99.90;;;;;;5130189;27;20042;-65
2023/12/02 08:22:29;;;;;;;23.65;14.27;;;0.30;99.90;;;;;;5094995;27;20547;-65
2023/12/02 08:24:55;;;;;;;22.95;13.90;;;0.30;99.90;;;;;;5112043;28;20126;-65
2023/12/02 08:27:21;;;;;;;30.50;17.00;;;0.30;99.90;;;;;;5091115;28;20154;-65
2023/12/02 08:29:47;;;;;;;29.60;17.63;;;0.40;99.90;;;;;;5100061;28;20065;-65
2023/12/02 08:32:13;;;;;;;25.40;16.48;;;0.40;99.90;;;;;;5095930;28;20031;-64
2023/12/02 08:34:38;;;;;;;27.05;16.17;;;0.40;99.90;;;;;;5111017;28;20035;-65
2023/12/02 08:37:04;;;;;;;27.02;16.08;;;0.40;99.90;;;;;;5104176;28;20070;-64
2023/12/02 08:39:30;;;;;;;24.88;14.85;;;0.40;99.90;;;;;;5111531;28;20039;-64
2023/12/02 08:41:56;;;;;;;26.40;15.18;;;0.50;99.90;;;;;;5110910;28;20700;-64
2023/12/02 08:44:23;;;;;;;25.13;13.73;;;0.60;99.90;;;;;;5112280;28;20434;-65
2023/12/02 08:46:50;;;;;;;24.27;13.38;;;0.50;99.90;;;;;;5119111;28;20046;-65
2023/12/02 08:49:16;;;;;;;26.10;14.60;;;0.60;99.90;;;;;;5111453;28;20048;-65
2023/12/02 08:51:42;;;;;;;24.52;14.50;;;0.70;99.90;;;;;;5094114;28;20043;-64
2023/12/02 08:54:07;;;;;;;21.00;13.75;;;0.70;99.90;;;;;;5094347;28;20460;-64
2023/12/02 08:56:33;;;;;;;23.25;14.95;;;0.70;99.90;;;;;;5093901;28;20059;-65
2023/12/02 08:58:59;;;;;;;26.98;15.77;;;0.70;99.90;;;;;;5111322;28;20392;-65
2023/12/02 09:01:25;;;;;;;23.95;14.43;;;0.70;99.90;;;;;;5110166;28;20046;-65
2023/12/02 09:03:51;;;;;;;23.38;15.63;;;0.80;99.90;;;;;;5095494;28;20114;-65
2023/12/02 09:06:17;;;;;;;29.38;16.38;;;0.80;99.90;;;;;;5114055;28;20075;-65
2023/12/02 09:08:43;;;;;;;26.48;14.38;;;0.80;99.90;;;;;;5113198;28;20073;-65
2023/12/02 09:11:08;;;;;;;21.23;12.23;;;0.80;99.90;;;;;;5113780;28;20039;-65
2023/12/02 09:13:40;;;;;;;22.08;12.60;;;0.90;99.90;;;;;;5114548;28;20053;-65
2023/12/02 09:16:26;;;;;;;21.08;12.43;;;1.00;99.90;;;;;;5113726;28;20122;-65
2023/12/02 09:18:51;;;;;;;21.88;12.38;;;1.00;99.90;;;;;;5114148;28;20039;-65
2023/12/02 09:21:42;;;;;;;22.17;12.73;;;1.00;99.90;;;;;;5113946;28;20472;-65
2023/12/02 09:24:34;;;;;;;23.30;14.10;;;1.10;99.90;;;;;;5116718;27;20055;-64
2023/12/02 09:27:09;;;;;;;22.90;13.70;;;1.10;99.90;;;;;;5117902;27;20092;-65
2023/12/02 09:29:40;;;;;;;22.92;13.63;;;1.20;99.90;;;;;;5116794;27;20032;-65
2023/12/02 09:32:35;;;;;;;20.98;12.45;;;1.20;99.90;;;;;;5116584;27;20118;-64
2023/12/02 09:35:01;;;;;;;21.52;12.57;;;1.20;99.90;;;;;;5108839;27;20043;-64
2023/12/02 09:37:35;;;;;;;24.67;12.90;;;1.20;99.90;;;;;;5116994;27;20076;-65
2023/12/02 09:40:25;;;;;;;21.20;11.88;;;1.20;99.90;;;;;;5117270;27;20035;-64
2023/12/02 09:43:02;;;;;;;21.38;11.57;;;1.30;99.90;;;;;;5099333;27;20114;-64
2023/12/02 09:45:45;;;;;;;18.20;11.52;;;1.30;99.90;;;;;;5116873;27;20043;-65
2023/12/02 09:48:20;;;;;;;18.73;10.27;;;1.40;99.90;;;;;;5100497;27;20395;-64
2023/12/02 09:51:31;;;;;;;15.57;10.10;;;1.40;99.90;;;;;;5116779;27;20051;-65
2023/12/02 09:54:34;;;;;;;24.77;12.55;;;1.40;99.90;;;;;;5103730;27;20495;-65
2023/12/02 09:57:22;;;;;;;19.17;11.35;;;1.50;99.90;;;;;;5115952;27;20496;-64
2023/12/02 10:00:12;;;;;;;22.70;12.65;;;1.50;99.90;;;;;;5117182;27;20035;-65
2023/12/02 10:02:56;;;;;;;24.80;13.07;;;1.60;99.90;;;;;;5116886;27;20043;-64
2023/12/02 10:05:22;;;;;;;22.70;12.48;;;1.50;99.90;;;;;;5115979;27;20173;-64
2023/12/02 10:08:04;;;;;;;20.58;12.98;;;1.60;99.90;;;;;;5116490;27;20080;-64
2023/12/02 10:10:50;;;;;;;16.88;9.50;;;1.60;99.90;;;;;;5116678;27;20043;-64
2023/12/02 10:13:31;;;;;;;13.85;8.65;;;1.70;99.90;;;;;;5117015;27;20087;-64
2023/12/02 10:16:03;;;;;;;15.20;9.48;;;1.70;99.90;;;;;;5110878;27;20045;-64
2023/12/02 10:18:37;;;;;;;13.30;7.47;;;1.70;99.90;;;;;;5093104;28;20047;-64
2023/12/02 10:21:09;;;;;;;13.48;7.47;;;1.60;99.90;;;;;;5113719;27;20048;-63
2023/12/02 10:23:58;;;;;;;15.30;7.68;;;1.70;99.90;;;;;;5114012;27;20057;-64
2023/12/02 10:26:32;;;;;;;13.02;7.25;;;1.70;99.90;;;;;;5095577;27;20451;-64
2023/12/02 10:29:09;;;;;;;17.35;6.20;;;1.80;99.90;;;;;;5110738;27;20050;-64
2023/12/02 10:31:41;;;;;;;12.40;6.82;;;1.80;99.90;;;;;;5113519;27;20463;-64
2023/12/02 10:34:28;;;;;;;12.55;6.20;;;1.90;99.90;;;;;;5112759;27;20440;-64
2023/12/02 10:36:57;;;;;;;11.52;5.95;;;1.90;99.90;;;;;;5113261;27;20042;-64
2023/12/02 10:39:46;;;;;;;10.75;5.95;;;1.90;99.90;;;;;;5112836;27;20532;-64
2023/12/02 10:42:26;;;;;;;11.05;5.95;;;1.90;99.90;;;;;;5096499;27;20118;-64
2023/12/02 10:45:02;;;;;;;14.07;7.07;;;1.90;99.90;;;;;;5113133;27;20042;-64
2023/12/02 10:47:29;;;;;;;15.18;6.82;;;2.00;99.90;;;;;;5112182;27;20395;-64
2023/12/02 10:49:57;;;;;;;12.13;5.88;;;2.00;99.90;;;;;;5111554;27;20043;-63
2023/12/02 10:52:24;;;;;;;11.63;6.50;;;2.10;99.90;;;;;;5112027;27;20039;-63
2023/12/02 10:54:52;;;;;;;10.77;5.85;;;2.00;99.90;;;;;;5095100;27;20503;-63
2023/12/02 10:57:19;;;;;;;9.90;5.13;;;2.10;99.90;;;;;;5111884;27;20146;-63
2023/12/02 11:00:06;;;;;;;8.70;5.00;;;2.10;99.90;;;;;;5112216;27;20526;-64
2023/12/02 11:02:57;;;;;;;9.60;5.88;;;2.10;99.90;;;;;;5111910;27;20047;-64
2023/12/02 11:05:30;;;;;;;11.40;6.10;;;2.20;99.90;;;;;;5104135;27;20340;-64
2023/12/02 11:08:03;;;;;;;10.35;5.93;;;2.20;99.90;;;;;;5111939;27;20215;-64
2023/12/02 11:10:42;;;;;;;14.38;7.00;;;2.20;99.90;;;;;;5113189;27;20380;-63
2023/12/02 11:13:12;;;;;;;10.50;4.78;;;2.20;99.90;;;;;;5097682;27;20039;-64
2023/12/02 11:16:05;;;;;;;9.95;4.57;;;2.20;99.90;;;;;;5094764;27;20480;-64
2023/12/02 11:19:01;;;;;;;11.05;4.28;;;2.20;99.90;;;;;;5112476;27;20055;-64
2023/12/02 11:21:35;;;;;;;9.05;4.35;;;2.30;99.90;;;;;;5111752;27;20049;-64
2023/12/02 11:24:16;;;;;;;9.20;3.90;;;2.20;99.90;;;;;;5094968;27;20091;-64
2023/12/02 11:27:06;;;;;;;8.63;3.60;;;2.30;99.90;;;;;;5094986;27;20039;-65
2023/12/02 11:29:48;;;;;;;6.68;3.15;;;2.30;99.90;;;;;;5094618;27;20066;-64
2023/12/02 11:32:23;;;;;;;7.65;2.97;;;2.30;99.90;;;;;;5090065;27;20042;-64
2023/12/02 11:34:57;;;;;;;5.82;2.88;;;2.30;99.90;;;;;;5112770;27;20035;-64
2023/12/02 11:37:22;;;;;;;8.30;1.98;;;2.40;99.90;;;;;;5114556;27;20046;-65
2023/12/02 11:40:09;;;;;;;5.55;2.42;;;2.30;99.90;;;;;;5114902;27;20484;-65
2023/12/02 11:42:51;;;;;;;5.30;2.65;;;2.40;99.90;;;;;;5097116;27;20039;-65
2023/12/02 11:45:23;;;;;;;5.32;2.63;;;2.30;99.90;;;;;;5095182;27;20176;-66
2023/12/02 11:48:26;;;;;;;7.40;3.47;;;2.40;99.90;;;;;;5111673;27;20047;-66
2023/12/02 11:51:22;;;;;;;6.53;2.65;;;2.40;99.90;;;;;;5097596;27;20084;-66
2023/12/02 11:54:14;;;;;;;7.32;3.20;;;2.40;99.90;;;;;;5098001;27;20035;-67
2023/12/02 11:57:09;;;;;;;6.38;2.33;;;2.40;99.90;;;;;;5071917;28;20067;-66
2023/12/02 12:00:06;;;;;;;12.53;5.90;;;2.40;99.90;;;;;;5094026;28;20046;-67
2023/12/02 12:02:56;;;;;;;8.63;3.47;;;2.40;99.90;;;;;;5110627;28;20056;-67
2023/12/02 12:05:42;;;;;;;7.93;3.97;;;2.50;99.90;;;;;;5110596;28;20051;-65
2023/12/02 12:08:39;;;;;;;7.50;2.90;;;2.50;99.90;;;;;;5104976;28;20385;-65
2023/12/02 12:11:08;;;;;;;6.63;2.95;;;2.50;99.90;;;;;;5106781;28;20090;-66
2023/12/02 12:13:35;;;;;;;6.25;3.08;;;2.50;99.90;;;;;;5108380;28;20395;-66
2023/12/02 12:16:00;;;;;;;7.88;3.72;;;2.50;99.90;;;;;;5108635;28;20404;-66
2023/12/02 12:18:27;;;;;;;5.72;3.08;;;2.50;99.90;;;;;;5106867;28;20047;-66
2023/12/02 12:20:55;;;;;;;5.93;2.63;;;2.50;99.90;;;;;;5107963;28;20079;-66
2023/12/02 12:23:28;;;;;;;6.72;2.67;;;2.50;99.90;;;;;;5106791;28;20063;-66
2023/12/02 12:25:53;;;;;;;5.82;2.53;;;2.50;99.90;;;;;;5108009;28;20075;-65
2023/12/02 12:28:19;;;;;;;7.10;3.15;;;2.50;99.90;;;;;;5107964;28;20059;-64
2023/12/02 12:30:47;;;;;;;6.18;3.08;;;2.50;99.90;;;;;;5108679;28;20039;-65
2023/12/02 12:33:15;;;;;;;10.13;6.05;;;2.50;99.90;;;;;;5107370;28;20042;-66
2023/12/02 12:35:42;;;;;;;8.77;5.18;;;2.50;99.90;;;;;;5108893;28;20047;-65
2023/12/02 12:38:11;;;;;;;8.68;4.70;;;2.50;99.90;;;;;;5092401;28;20050;-65
2023/12/02 12:40:39;;;;;;;8.32;3.78;;;2.50;99.90;;;;;;5107829;28;20521;-65
2023/12/02 12:43:11;;;;;;;7.75;3.45;;;2.50;99.90;;;;;;5108546;28;20035;-65